createdAt,value
2016-05-30T00:00:42.750Z,15.73
2016-05-30T00:01:42.705Z,15.82
2016-05-30T00:02:42.521Z,15.75
2016-05-30T00:03:42.617Z,15.79
2016-05-30T00:04:42.558Z,15.67
2016-05-30T00:05:42.341Z,15.76
2016-05-30T00:06:42.313Z,15.68
2016-05-30T00:07:42.424Z,15.75
2016-05-30T00:08:42.380Z,15.68
2016-05-30T00:09:42.149Z,15.7
2016-05-30T00:10:42.277Z,15.64
2016-05-30T00:11:42.232Z,15.7
2016-05-30T00:12:42.016Z,15.67
2016-05-30T00:13:42.129Z,15.57
2016-05-30T00:14:42.084Z,15.61
2016-05-30T00:15:42.024Z,15.57
2016-05-30T00:16:41.996Z,15.68
2016-05-30T00:17:41.936Z,15.64
2016-05-30T00:18:41.876Z,15.65
2016-05-30T00:19:41.832Z,15.64
2016-05-30T00:20:41.647Z,15.62
2016-05-30T00:21:41.775Z,15.57
2016-05-30T00:22:41.700Z,15.59
2016-05-30T00:23:41.639Z,15.61
2016-05-30T00:24:41.611Z,15.58
2016-05-30T00:25:41.254Z,15.55
2016-05-30T00:26:41.350Z,15.62
2016-05-30T00:27:41.448Z,15.47
2016-05-30T00:28:41.434Z,15.47
2016-05-30T00:29:41.203Z,15.54
2016-05-30T00:30:41.346Z,15.51
2016-05-30T00:31:41.255Z,15.51
2016-05-30T00:32:41.210Z,15.44
2016-05-30T00:33:41.182Z,15.47
2016-05-30T00:34:41.122Z,15.55
2016-05-30T00:35:41.078Z,15.55
2016-05-30T00:36:41.738Z,15.39
2016-05-30T00:37:40.990Z,15.47
2016-05-30T00:38:40.945Z,15.47
2016-05-30T00:39:40.730Z,15.46
2016-05-30T00:40:40.842Z,15.46
2016-05-30T00:41:40.798Z,15.31
2016-05-30T00:42:40.754Z,15.46
2016-05-30T00:43:40.553Z,15.43
2016-05-30T00:44:40.665Z,15.46
2016-05-30T00:45:40.590Z,15.52
2016-05-30T00:46:40.562Z,15.47
2016-05-30T00:47:40.517Z,15.47
2016-05-30T00:48:40.457Z,15.4
2016-05-30T00:49:40.413Z,15.47
2016-05-30T00:50:40.197Z,15.46
2016-05-30T00:51:40.325Z,15.49
2016-05-30T00:52:40.264Z,15.44
2016-05-30T00:53:40.061Z,15.43
2016-05-30T00:54:40.158Z,15.29
2016-05-30T00:55:40.114Z,15.37
2016-05-30T00:56:40.054Z,15.28
2016-05-30T00:57:40.009Z,15.44
2016-05-30T00:58:39.981Z,15.43
2016-05-30T00:59:39.937Z,15.43
2016-05-30T01:00:39.892Z,15.31
2016-05-30T01:01:39.833Z,15.37
2016-05-30T01:02:39.788Z,15.29
2016-05-30T01:03:39.744Z,15.28
2016-05-30T01:04:39.685Z,15.37
2016-05-30T01:05:39.641Z,15.22
2016-05-30T01:06:39.440Z,15.25
2016-05-30T01:07:39.552Z,15.33
2016-05-30T01:08:39.493Z,15.29
2016-05-30T01:09:39.448Z,15.29
2016-05-30T01:10:39.404Z,15.29
2016-05-30T01:11:39.359Z,15.4
2016-05-30T01:12:39.315Z,15.29
2016-05-30T01:13:39.271Z,15.37
2016-05-30T01:14:39.212Z,15.29
2016-05-30T01:15:39.151Z,15.43
2016-05-30T01:16:39.124Z,15.42
2016-05-30T01:17:39.063Z,15.37
2016-05-30T01:18:39.020Z,15.33
2016-05-30T01:19:38.959Z,15.28
2016-05-30T01:20:38.931Z,15.29
2016-05-30T01:21:38.996Z,15.33
2016-05-30T01:22:38.827Z,15.35
2016-05-30T01:23:38.783Z,15.28
2016-05-30T01:24:38.754Z,15.28
2016-05-30T01:25:38.679Z,15.27
2016-05-30T01:26:38.635Z,15.33
2016-05-30T01:27:38.590Z,15.31
2016-05-30T01:28:38.547Z,15.4
2016-05-30T01:29:38.361Z,15.28
2016-05-30T01:30:38.286Z,15.37
2016-05-30T01:31:38.398Z,15.21
2016-05-30T01:32:38.369Z,15.29
2016-05-30T01:33:38.310Z,15.31
2016-05-30T01:34:38.093Z,15.24
2016-05-30T01:35:38.206Z,15.4
2016-05-30T01:36:38.021Z,15.36
2016-05-30T01:37:38.117Z,15.37
2016-05-30T01:38:38.057Z,15.33
2016-05-30T01:39:38.013Z,15.36
2016-05-30T01:40:37.969Z,15.33
2016-05-30T01:41:37.753Z,15.22
2016-05-30T01:42:37.880Z,15.22
2016-05-30T01:43:37.821Z,15.36
2016-05-30T01:44:37.777Z,15.25
2016-05-30T01:45:37.717Z,15.29
2016-05-30T01:46:37.688Z,15.25
2016-05-30T01:47:37.643Z,15.31
2016-05-30T01:48:37.443Z,15.28
2016-05-30T01:49:37.368Z,15.27
2016-05-30T01:50:37.496Z,15.39
2016-05-30T01:51:37.733Z,15.29
2016-05-30T01:52:37.392Z,15.22
2016-05-30T01:53:37.348Z,15.21
2016-05-30T01:54:37.287Z,15.31
2016-05-30T01:55:37.259Z,15.24
2016-05-30T01:56:37.199Z,15.18
2016-05-30T01:57:37.155Z,15.22
2016-05-30T01:58:37.111Z,15.28
2016-05-30T01:59:37.051Z,15.29
2016-05-30T02:00:36.850Z,15.28
2016-05-30T02:01:36.995Z,15.31
2016-05-30T02:02:36.903Z,15.24
2016-05-30T02:03:36.858Z,15.31
2016-05-30T02:04:36.846Z,15.27
2016-05-30T02:05:36.771Z,15.33
2016-05-30T02:06:36.789Z,15.25
2016-05-30T02:07:37.011Z,15.24
2016-05-30T02:08:36.623Z,15.25
2016-05-30T02:09:36.577Z,15.28
2016-05-30T02:10:36.535Z,15.37
2016-05-30T02:11:36.490Z,15.33
2016-05-30T02:12:36.430Z,15.29
2016-05-30T02:13:36.418Z,15.21
2016-05-30T02:14:36.341Z,15.28
2016-05-30T02:15:36.298Z,15.27
2016-05-30T02:16:36.238Z,15.28
2016-05-30T02:17:36.210Z,15.18
2016-05-30T02:18:35.993Z,15.27
2016-05-30T02:19:36.090Z,15.29
2016-05-30T02:20:35.905Z,15.28
2016-05-30T02:21:36.220Z,15.31
2016-05-30T02:22:35.957Z,15.29
2016-05-30T02:23:35.912Z,15.33
2016-05-30T02:24:35.868Z,15.31
2016-05-30T02:25:35.653Z,15.25
2016-05-30T02:26:35.781Z,15.29
2016-05-30T02:27:35.720Z,15.25
2016-05-30T02:28:35.536Z,15.25
2016-05-30T02:29:35.632Z,15.22
2016-05-30T02:30:35.572Z,15.18
2016-05-30T02:31:35.559Z,15.25
2016-05-30T02:32:35.483Z,15.28
2016-05-30T02:33:35.425Z,15.28
2016-05-30T02:34:35.380Z,15.33
2016-05-30T02:35:35.336Z,15.22
2016-05-30T02:36:35.354Z,15.28
2016-05-30T02:37:35.841Z,15.31
2016-05-30T02:38:35.203Z,15.31
2016-05-30T02:39:35.156Z,15.25
2016-05-30T02:40:35.139Z,15.27
2016-05-30T02:41:34.965Z,15.18
2016-05-30T02:42:35.104Z,15.31
2016-05-30T02:43:35.072Z,15.25
2016-05-30T02:44:35.046Z,15.28
2016-05-30T02:45:35.012Z,15.24
2016-05-30T02:46:34.977Z,15.28
2016-05-30T02:47:34.645Z,15.25
2016-05-30T02:48:34.767Z,15.29
2016-05-30T02:49:34.855Z,15.27
2016-05-30T02:50:34.813Z,15.22
2016-05-30T02:51:34.632Z,15.31
2016-05-30T02:52:34.732Z,15.1
2016-05-30T02:53:34.691Z,15.19
2016-05-30T02:54:34.665Z,15.28
2016-05-30T02:55:34.591Z,15.24
2016-05-30T02:56:34.548Z,15.27
2016-05-30T02:57:34.505Z,15.35
2016-05-30T02:58:34.462Z,15.29
2016-05-30T02:59:34.403Z,15.28
2016-05-30T03:00:34.360Z,15.24
2016-05-30T03:01:34.301Z,15.25
2016-05-30T03:02:34.257Z,15.25
2016-05-30T03:03:34.229Z,15.27
2016-05-30T03:04:34.185Z,15.22
2016-05-30T03:05:33.970Z,15.22
2016-05-30T03:06:34.082Z,15.28
2016-05-30T03:07:34.318Z,15.25
2016-05-30T03:08:33.977Z,15.28
2016-05-30T03:09:33.918Z,15.31
2016-05-30T03:10:33.874Z,15.25
2016-05-30T03:11:33.829Z,15.36
2016-05-30T03:12:33.770Z,15.24
2016-05-30T03:13:33.725Z,15.29
2016-05-30T03:14:33.681Z,15.39
2016-05-30T03:15:33.653Z,15.29
2016-05-30T03:16:33.593Z,15.27
2016-05-30T03:17:33.392Z,15.27
2016-05-30T03:18:33.489Z,15.36
2016-05-30T03:19:33.444Z,15.39
2016-05-30T03:20:33.385Z,15.28
2016-05-30T03:21:33.919Z,15.33
2016-05-30T03:22:33.655Z,15.39
2016-05-30T03:23:33.252Z,15.37
2016-05-30T03:24:33.208Z,15.4
2016-05-30T03:25:33.164Z,15.27
2016-05-30T03:26:33.104Z,15.25
2016-05-30T03:27:33.075Z,15.33
2016-05-30T03:28:33.016Z,15.31
2016-05-30T03:29:32.971Z,15.39
2016-05-30T03:30:32.959Z,15.22
2016-05-30T03:31:32.882Z,15.21
2016-05-30T03:32:32.823Z,15.25
2016-05-30T03:33:32.779Z,15.36
2016-05-30T03:34:32.734Z,15.37
2016-05-30T03:35:32.706Z,15.22
2016-05-30T03:36:33.021Z,15.24
2016-05-30T03:37:32.837Z,15.24
2016-05-30T03:38:32.543Z,15.28
2016-05-30T03:39:32.515Z,15.33
2016-05-30T03:40:32.438Z,15.35
2016-05-30T03:41:32.395Z,15.35
2016-05-30T03:42:32.179Z,15.27
2016-05-30T03:43:32.290Z,15.28
2016-05-30T03:44:32.262Z,15.36
2016-05-30T03:45:32.203Z,15.27
2016-05-30T03:46:32.002Z,15.25
2016-05-30T03:47:32.114Z,15.24
2016-05-30T03:48:32.053Z,15.25
2016-05-30T03:49:32.010Z,15.27
2016-05-30T03:50:31.981Z,15.24
2016-05-30T03:51:32.312Z,15.31
2016-05-30T03:52:32.033Z,15.29
2016-05-30T03:53:31.833Z,15.27
2016-05-30T03:54:31.773Z,15.29
2016-05-30T03:55:31.729Z,15.31
2016-05-30T03:56:31.669Z,15.29
2016-05-30T03:57:31.625Z,15.36
2016-05-30T03:58:31.580Z,15.21
2016-05-30T03:59:31.537Z,15.36
2016-05-30T04:00:31.493Z,15.39
2016-05-30T04:01:31.463Z,15.36
2016-05-30T04:02:31.388Z,15.27
2016-05-30T04:03:31.375Z,15.35
2016-05-30T04:04:31.316Z,15.25
2016-05-30T04:05:31.256Z,15.25
2016-05-30T04:06:31.040Z,15.31
2016-05-30T04:07:31.183Z,15.33
2016-05-30T04:08:30.951Z,15.28
2016-05-30T04:09:31.064Z,15.33
2016-05-30T04:10:31.004Z,15.36
2016-05-30T04:11:30.976Z,15.22
2016-05-30T04:12:30.915Z,15.36
2016-05-30T04:13:30.714Z,15.35
2016-05-30T04:14:30.687Z,15.33
2016-05-30T04:15:30.626Z,15.31
2016-05-30T04:16:30.739Z,15.4
2016-05-30T04:17:30.695Z,15.33
2016-05-30T04:18:30.650Z,15.33
2016-05-30T04:19:30.575Z,15.36
2016-05-30T04:20:30.531Z,15.33
2016-05-30T04:21:30.486Z,15.37
2016-05-30T04:22:30.286Z,15.27
2016-05-30T04:23:30.414Z,15.29
2016-05-30T04:24:30.338Z,15.35
2016-05-30T04:25:30.310Z,15.35
2016-05-30T04:26:30.234Z,15.4
2016-05-30T04:27:30.190Z,15.29
2016-05-30T04:28:30.161Z,15.35
2016-05-30T04:29:30.117Z,15.33
2016-05-30T04:30:30.088Z,15.27
2016-05-30T04:31:30.013Z,15.33
2016-05-30T04:32:29.985Z,15.29
2016-05-30T04:33:29.753Z,15.39
2016-05-30T04:34:29.568Z,15.31
2016-05-30T04:35:29.820Z,15.39
2016-05-30T04:36:29.807Z,15.35
2016-05-30T04:37:29.436Z,15.33
2016-05-30T04:38:29.673Z,15.36
2016-05-30T04:39:29.644Z,15.4
2016-05-30T04:40:29.584Z,15.4
2016-05-30T04:41:29.384Z,15.39
2016-05-30T04:42:29.495Z,15.22
2016-05-30T04:43:29.452Z,15.36
2016-05-30T04:44:29.408Z,15.29
2016-05-30T04:45:29.347Z,15.31
2016-05-30T04:46:29.289Z,15.29
2016-05-30T04:47:29.244Z,15.33
2016-05-30T04:48:29.215Z,15.44
2016-05-30T04:49:29.156Z,15.4
2016-05-30T04:50:29.095Z,15.43
2016-05-30T04:51:29.114Z,15.47
2016-05-30T04:52:29.805Z,15.31
2016-05-30T04:53:28.978Z,15.43
2016-05-30T04:54:28.935Z,15.33
2016-05-30T04:55:28.875Z,15.43
2016-05-30T04:56:28.815Z,15.39
2016-05-30T04:57:28.614Z,15.39
2016-05-30T04:58:28.742Z,15.42
2016-05-30T04:59:28.526Z,15.29
2016-05-30T05:00:28.638Z,15.44
2016-05-30T05:01:28.579Z,15.37
2016-05-30T05:02:28.534Z,15.35
2016-05-30T05:03:28.490Z,15.35
2016-05-30T05:04:28.430Z,15.39
2016-05-30T05:05:28.417Z,15.46
2016-05-30T05:06:28.623Z,15.47
2016-05-30T05:07:28.266Z,15.46
2016-05-30T05:08:28.097Z,15.47
2016-05-30T05:09:28.068Z,15.47
2016-05-30T05:10:28.149Z,15.51
2016-05-30T05:11:28.105Z,15.47
2016-05-30T05:12:28.061Z,15.49
2016-05-30T05:13:28.017Z,15.46
2016-05-30T05:14:27.972Z,15.51
2016-05-30T05:15:27.897Z,15.46
2016-05-30T05:16:27.712Z,15.46
2016-05-30T05:17:27.840Z,15.43
2016-05-30T05:18:27.624Z,15.47
2016-05-30T05:19:27.580Z,15.49
2016-05-30T05:20:27.676Z,15.52
2016-05-30T05:21:28.101Z,15.51
2016-05-30T05:22:27.479Z,15.52
2016-05-30T05:23:27.528Z,15.52
2016-05-30T05:24:27.469Z,15.49
2016-05-30T05:25:27.439Z,15.42
2016-05-30T05:26:27.380Z,15.49
2016-05-30T05:27:27.352Z,15.52
2016-05-30T05:28:27.277Z,15.51
2016-05-30T05:29:27.247Z,15.51
2016-05-30T05:30:27.187Z,15.52
2016-05-30T05:31:27.347Z,15.64
2016-05-30T05:32:27.099Z,15.57
2016-05-30T05:33:26.743Z,15.62
2016-05-30T05:34:27.010Z,15.59
2016-05-30T05:35:26.795Z,15.67
2016-05-30T05:36:27.204Z,15.68
2016-05-30T05:37:26.987Z,15.7
2016-05-30T05:38:26.803Z,15.62
2016-05-30T05:39:26.759Z,15.68
2016-05-30T05:40:26.714Z,15.7
2016-05-30T05:41:26.671Z,15.68
2016-05-30T05:42:26.517Z,15.64
2016-05-30T05:43:26.410Z,15.65
2016-05-30T05:44:26.537Z,15.68
2016-05-30T05:45:26.478Z,15.61
2016-05-30T05:46:26.433Z,15.61
2016-05-30T05:47:26.218Z,15.58
2016-05-30T05:48:26.345Z,15.68
2016-05-30T05:49:26.286Z,15.65
2016-05-30T05:50:25.914Z,15.72
2016-05-30T05:51:26.197Z,15.65
2016-05-30T05:52:26.683Z,15.7
2016-05-30T05:53:25.936Z,15.67
2016-05-30T05:54:26.050Z,15.68
2016-05-30T05:55:25.849Z,15.7
2016-05-30T05:56:25.992Z,15.64
2016-05-30T05:57:25.916Z,15.67
2016-05-30T05:58:25.857Z,15.7
2016-05-30T05:59:25.641Z,15.76
2016-05-30T06:00:25.769Z,15.72
2016-05-30T06:01:25.552Z,15.75
2016-05-30T06:02:25.680Z,15.73
2016-05-30T06:03:25.621Z,15.67
2016-05-30T06:04:25.576Z,15.73
2016-05-30T06:05:25.532Z,15.73
2016-05-30T06:06:25.519Z,15.76
2016-05-30T06:07:25.740Z,15.75
2016-05-30T06:08:25.227Z,15.83
2016-05-30T06:09:25.324Z,15.83
2016-05-30T06:10:25.279Z,15.84
2016-05-30T06:11:25.235Z,15.9
2016-05-30T06:12:25.191Z,15.83
2016-05-30T06:13:24.975Z,15.8
2016-05-30T06:14:24.946Z,15.77
2016-05-30T06:15:24.903Z,15.94
2016-05-30T06:16:24.998Z,15.91
2016-05-30T06:17:24.798Z,15.83
2016-05-30T06:18:24.911Z,15.95
2016-05-30T06:19:24.538Z,15.83
2016-05-30T06:20:24.806Z,15.84
2016-05-30T06:21:24.747Z,15.88
2016-05-30T06:22:24.702Z,15.86
2016-05-30T06:23:24.674Z,15.9
2016-05-30T06:24:24.473Z,15.9
2016-05-30T06:25:24.569Z,15.86
2016-05-30T06:26:24.369Z,15.88
2016-05-30T06:27:24.481Z,15.88
2016-05-30T06:28:24.437Z,15.98
2016-05-30T06:29:24.393Z,15.92
2016-05-30T06:30:24.333Z,15.86
2016-05-30T06:31:24.320Z,15.86
2016-05-30T06:32:24.244Z,15.88
2016-05-30T06:33:23.888Z,16.02
2016-05-30T06:34:24.157Z,16.01
2016-05-30T06:35:23.863Z,15.92
2016-05-30T06:36:24.052Z,16.05
2016-05-30T06:37:24.524Z,15.95
2016-05-30T06:38:23.964Z,15.95
2016-05-30T06:39:23.920Z,16
2016-05-30T06:40:23.860Z,15.95
2016-05-30T06:41:23.800Z,16.01
2016-05-30T06:42:23.757Z,16.04
2016-05-30T06:43:23.712Z,16.01
2016-05-30T06:44:23.668Z,16.02
2016-05-30T06:45:23.623Z,16.09
2016-05-30T06:46:23.579Z,16.1
2016-05-30T06:47:23.379Z,16.1
2016-05-30T06:48:23.475Z,16.04
2016-05-30T06:49:23.432Z,16.15
2016-05-30T06:50:23.418Z,16.13
2016-05-30T06:51:23.811Z,16.13
2016-05-30T06:52:23.878Z,16.21
2016-05-30T06:53:23.098Z,16.17
2016-05-30T06:54:23.366Z,16.17
2016-05-30T06:55:23.151Z,16.13
2016-05-30T06:56:23.122Z,16.15
2016-05-30T06:57:23.062Z,16.17
2016-05-30T06:58:23.050Z,16.26
2016-05-30T06:59:22.974Z,16.31
2016-05-30T07:00:26.477Z,16.32
2016-05-30T07:01:22.713Z,16.2
2016-05-30T07:02:22.810Z,16.28
2016-05-30T07:03:22.782Z,16.32
2016-05-30T07:04:22.425Z,16.28
2016-05-30T07:05:22.506Z,16.35
2016-05-30T07:06:22.493Z,16.32
2016-05-30T07:07:22.964Z,16.38
2016-05-30T07:08:22.529Z,16.36
2016-05-30T07:09:22.485Z,16.28
2016-05-30T07:10:22.440Z,16.13
2016-05-30T07:11:22.382Z,16.28
2016-05-30T07:12:22.352Z,16.24
2016-05-30T07:13:22.292Z,16.31
2016-05-30T07:14:22.249Z,16.26
2016-05-30T07:15:22.204Z,16.31
2016-05-30T07:16:22.145Z,16.46
2016-05-30T07:17:22.101Z,16.24
2016-05-30T07:18:21.901Z,16.35
2016-05-30T07:19:21.996Z,16.43
2016-05-30T07:20:21.953Z,16.43
2016-05-30T07:21:22.376Z,16.46
2016-05-30T07:22:22.426Z,16.42
2016-05-30T07:23:21.820Z,16.51
2016-05-30T07:24:21.775Z,16.47
2016-05-30T07:25:21.731Z,16.49
2016-05-30T07:26:21.672Z,16.49
2016-05-30T07:27:21.628Z,16.53
2016-05-30T07:28:21.583Z,16.51
2016-05-30T07:29:21.383Z,16.64
2016-05-30T07:30:21.511Z,16.53
2016-05-30T07:31:21.450Z,16.56
2016-05-30T07:32:21.406Z,16.6
2016-05-30T07:33:21.346Z,16.65
2016-05-30T07:34:21.146Z,16.65
2016-05-30T07:35:21.258Z,16.66
2016-05-30T07:36:21.355Z,16.61
2016-05-30T07:37:21.638Z,16.58
2016-05-30T07:38:21.110Z,16.68
2016-05-30T07:39:21.081Z,16.69
2016-05-30T07:40:21.944Z,16.64
2016-05-30T07:41:20.821Z,16.61
2016-05-30T07:42:20.918Z,16.6
2016-05-30T07:43:20.873Z,16.61
2016-05-30T07:44:20.846Z,16.68
2016-05-30T07:45:20.785Z,16.66
2016-05-30T07:46:20.756Z,16.69
2016-05-30T07:47:20.540Z,16.71
2016-05-30T07:48:20.653Z,16.68
2016-05-30T07:49:20.624Z,16.72
2016-05-30T07:50:20.564Z,16.68
2016-05-30T07:51:20.598Z,16.76
2016-05-30T07:52:21.397Z,16.83
2016-05-30T07:53:20.416Z,16.65
2016-05-30T07:54:20.372Z,16.81
2016-05-30T07:55:21.968Z,16.78
2016-05-30T07:56:20.128Z,16.83
2016-05-30T07:57:20.239Z,16.83
2016-05-30T07:58:20.164Z,16.84
2016-05-30T07:59:19.978Z,16.76
2016-05-30T08:00:20.075Z,16.76
2016-05-30T08:01:20.047Z,16.76
2016-05-30T08:02:19.987Z,16.96
2016-05-30T08:03:19.771Z,16.96
2016-05-30T08:04:19.742Z,16.94
2016-05-30T08:05:19.839Z,16.97
2016-05-30T08:06:20.263Z,16.89
2016-05-30T08:07:19.610Z,16.94
2016-05-30T08:08:19.707Z,17.01
2016-05-30T08:09:19.663Z,16.97
2016-05-30T08:10:19.649Z,17.02
2016-05-30T08:11:19.574Z,17.02
2016-05-30T08:12:19.513Z,17.01
2016-05-30T08:13:19.157Z,17.02
2016-05-30T08:14:19.441Z,16.99
2016-05-30T08:15:19.382Z,17.04
2016-05-30T08:16:19.182Z,17.08
2016-05-30T08:17:19.309Z,17.09
2016-05-30T08:18:19.234Z,17.06
2016-05-30T08:19:19.189Z,17.12
2016-05-30T08:20:19.160Z,17.08
2016-05-30T08:21:19.101Z,17.11
2016-05-30T08:22:19.370Z,17.15
2016-05-30T08:23:18.873Z,17.2
2016-05-30T08:24:19.045Z,17.27
2016-05-30T08:25:18.908Z,17.27
2016-05-30T08:26:18.864Z,17.3
2016-05-30T08:27:18.711Z,17.3
2016-05-30T08:28:18.776Z,17.31
2016-05-30T08:29:18.731Z,17.27
2016-05-30T08:30:18.656Z,17.34
2016-05-30T08:31:18.627Z,17.34
2016-05-30T08:32:18.583Z,17.38
2016-05-30T08:33:18.539Z,17.39
2016-05-30T08:34:18.480Z,17.44
2016-05-30T08:35:18.450Z,17.41
2016-05-30T08:36:18.391Z,17.44
2016-05-30T08:37:18.347Z,17.54
2016-05-30T08:38:18.146Z,17.64
2016-05-30T08:39:18.290Z,17.57
2016-05-30T08:40:18.261Z,17.57
2016-05-30T08:41:18.171Z,17.57
2016-05-30T08:42:18.111Z,17.64
2016-05-30T08:43:18.065Z,17.64
2016-05-30T08:44:18.022Z,17.63
2016-05-30T08:45:17.665Z,17.67
2016-05-30T08:46:17.762Z,17.65
2016-05-30T08:47:17.873Z,17.65
2016-05-30T08:48:17.892Z,17.67
2016-05-30T08:49:17.645Z,17.64
2016-05-30T08:50:17.585Z,17.68
2016-05-30T08:51:17.698Z,17.79
2016-05-30T08:52:17.809Z,17.85
2016-05-30T08:53:17.592Z,17.78
2016-05-30T08:54:17.564Z,17.8
2016-05-30T08:55:17.504Z,17.85
2016-05-30T08:56:17.476Z,17.79
2016-05-30T08:57:17.417Z,17.76
2016-05-30T08:58:17.201Z,17.94
2016-05-30T08:59:17.328Z,17.94
2016-05-30T09:00:17.299Z,17.95
2016-05-30T09:01:17.224Z,17.98
2016-05-30T09:02:17.023Z,18.08
2016-05-30T09:03:17.136Z,18.13
2016-05-30T09:04:17.092Z,18.18
2016-05-30T09:05:17.047Z,18.11
2016-05-30T09:06:17.034Z,18.13
2016-05-30T09:07:16.849Z,18.15
2016-05-30T09:08:16.900Z,18.1
2016-05-30T09:09:16.699Z,18.08
2016-05-30T09:10:16.826Z,18.16
2016-05-30T09:11:16.766Z,18.05
2016-05-30T09:12:16.566Z,18.01
2016-05-30T09:13:16.694Z,18.18
2016-05-30T09:14:16.462Z,18.13
2016-05-30T09:15:16.590Z,18.18
2016-05-30T09:16:16.529Z,18.23
2016-05-30T09:17:16.485Z,18.22
2016-05-30T09:18:16.473Z,18.25
2016-05-30T09:19:16.241Z,18.19
2016-05-30T09:20:16.338Z,18.23
2016-05-30T09:21:16.684Z,18.16
2016-05-30T09:22:16.296Z,18.04
2016-05-30T09:23:16.204Z,18.25
2016-05-30T09:24:16.176Z,18.23
2016-05-30T09:25:15.976Z,18.18
2016-05-30T09:26:16.073Z,18.2
2016-05-30T09:27:16.012Z,18.22
2016-05-30T09:28:15.811Z,18.19
2016-05-30T09:29:15.925Z,18.2
2016-05-30T09:30:15.895Z,18.19
2016-05-30T09:31:15.851Z,18.23
2016-05-30T09:32:15.792Z,18.31
2016-05-30T09:33:15.748Z,18.29
2016-05-30T09:34:15.703Z,18.37
2016-05-30T09:35:15.659Z,18.31
2016-05-30T09:36:15.599Z,18.37
2016-05-30T09:37:15.572Z,18.44
2016-05-30T09:38:15.527Z,18.49
2016-05-30T09:39:15.466Z,18.53
2016-05-30T09:40:15.407Z,18.5
2016-05-30T09:41:15.378Z,18.49
2016-05-30T09:42:15.334Z,18.53
2016-05-30T09:43:15.291Z,18.56
2016-05-30T09:44:15.246Z,18.59
2016-05-30T09:45:15.342Z,18.58
2016-05-30T09:46:15.236Z,18.58
2016-05-30T09:47:15.098Z,18.56
2016-05-30T09:48:15.053Z,18.66
2016-05-30T09:49:14.838Z,18.65
2016-05-30T09:50:14.934Z,18.73
2016-05-30T09:51:14.734Z,18.73
2016-05-30T09:52:14.720Z,18.74
2016-05-30T09:53:14.801Z,18.74
2016-05-30T09:54:14.772Z,18.74
2016-05-30T09:55:14.712Z,18.86
2016-05-30T09:56:14.684Z,18.81
2016-05-30T09:57:14.625Z,18.9
2016-05-30T09:58:14.611Z,18.86
2016-05-30T09:59:14.520Z,18.84
2016-05-30T10:00:14.476Z,18.78
2016-05-30T10:01:14.448Z,18.9
2016-05-30T10:02:14.388Z,18.96
2016-05-30T10:03:14.344Z,18.95
2016-05-30T10:04:14.300Z,18.92
2016-05-30T10:05:14.100Z,18.96
2016-05-30T10:06:14.211Z,19.02
2016-05-30T10:07:14.480Z,18.99
2016-05-30T10:08:14.123Z,19.11
2016-05-30T10:09:14.079Z,19.19
2016-05-30T10:10:14.035Z,19.19
2016-05-30T10:11:13.991Z,19.27
2016-05-30T10:12:13.931Z,19.18
2016-05-30T10:13:13.902Z,19.24
2016-05-30T10:14:13.702Z,19.21
2016-05-30T10:15:13.814Z,19.26
2016-05-30T10:16:13.754Z,19.34
2016-05-30T10:17:13.554Z,19.24
2016-05-30T10:18:13.665Z,19.26
2016-05-30T10:19:13.621Z,19.27
2016-05-30T10:20:13.562Z,19.33
2016-05-30T10:21:13.360Z,19.31
2016-05-30T10:22:13.473Z,19.31
2016-05-30T10:23:13.413Z,19.39
2016-05-30T10:24:13.385Z,19.4
2016-05-30T10:25:13.371Z,19.52
2016-05-30T10:26:13.281Z,19.52
2016-05-30T10:27:13.252Z,19.59
2016-05-30T10:28:13.208Z,19.66
2016-05-30T10:29:13.148Z,19.64
2016-05-30T10:30:12.964Z,19.81
2016-05-30T10:31:13.059Z,19.92
2016-05-30T10:32:13.000Z,19.86
2016-05-30T10:33:12.956Z,19.91
2016-05-30T10:34:12.927Z,19.88
2016-05-30T10:35:12.867Z,19.95
2016-05-30T10:36:12.823Z,19.85
2016-05-30T10:37:13.467Z,19.91
2016-05-30T10:38:12.750Z,19.94
2016-05-30T10:39:12.691Z,20
2016-05-30T10:40:12.646Z,20.02
2016-05-30T10:41:12.619Z,20.03
2016-05-30T10:42:12.574Z,20
2016-05-30T10:43:12.530Z,20.16
2016-05-30T10:44:12.470Z,20.14
2016-05-30T10:45:12.441Z,20.14
2016-05-30T10:46:12.381Z,20.14
2016-05-30T10:47:12.322Z,20.16
2016-05-30T10:48:12.293Z,20.16
2016-05-30T10:49:12.232Z,20.09
2016-05-30T10:50:12.048Z,20.09
2016-05-30T10:51:12.177Z,20.18
2016-05-30T10:52:13.054Z,20.18
2016-05-30T10:53:12.057Z,20.21
2016-05-30T10:54:11.888Z,20.14
2016-05-30T10:55:11.952Z,20.19
2016-05-30T10:56:11.924Z,20.28
2016-05-30T10:57:11.724Z,20.41
2016-05-30T10:58:11.835Z,20.47
2016-05-30T10:59:11.635Z,20.52
2016-05-30T11:00:11.762Z,20.51
2016-05-30T11:01:11.703Z,20.51
2016-05-30T11:02:11.659Z,20.39
2016-05-30T11:03:11.614Z,20.29
2016-05-30T11:04:11.555Z,20.36
2016-05-30T11:05:11.526Z,20.34
2016-05-30T11:06:11.466Z,20.4
2016-05-30T11:07:12.359Z,20.58
2016-05-30T11:08:11.378Z,20.67
2016-05-30T11:09:11.177Z,20.72
2016-05-30T11:10:11.289Z,20.82
2016-05-30T11:11:11.089Z,20.8
2016-05-30T11:12:11.202Z,20.97
2016-05-30T11:13:11.172Z,20.95
2016-05-30T11:14:11.144Z,21.09
2016-05-30T11:15:11.069Z,21.2
2016-05-30T11:16:11.024Z,21.03
2016-05-30T11:17:10.980Z,21.12
2016-05-30T11:18:10.936Z,21.2
2016-05-30T11:19:10.908Z,21.24
2016-05-30T11:20:10.848Z,21.3
2016-05-30T11:21:10.819Z,21.45
2016-05-30T11:22:11.166Z,21.46
2016-05-30T11:23:10.591Z,21.4
2016-05-30T11:24:10.671Z,21.5
2016-05-30T11:25:10.487Z,21.4
2016-05-30T11:26:10.442Z,21.43
2016-05-30T11:27:10.617Z,21.42
2016-05-30T11:28:10.494Z,21.37
2016-05-30T11:29:10.466Z,21.37
2016-05-30T11:30:10.406Z,21.32
2016-05-30T11:31:10.221Z,21.22
2016-05-30T11:32:10.333Z,21.22
2016-05-30T11:33:09.961Z,21.29
2016-05-30T11:34:10.089Z,21.25
2016-05-30T11:35:10.029Z,21.07
2016-05-30T11:36:10.156Z,21.15
2016-05-30T11:37:10.784Z,21.18
2016-05-30T11:38:09.896Z,21.25
2016-05-30T11:39:10.009Z,21.25
2016-05-30T11:40:09.964Z,21.29
2016-05-30T11:41:09.935Z,21.45
2016-05-30T11:42:09.875Z,21.58
2016-05-30T11:43:09.847Z,21.7
2016-05-30T11:44:09.788Z,21.82
2016-05-30T11:45:09.758Z,21.76
2016-05-30T11:46:09.750Z,21.88
2016-05-30T11:47:09.711Z,21.76
2016-05-30T11:48:09.671Z,21.82
2016-05-30T11:49:09.662Z,21.79
2016-05-30T11:50:09.629Z,21.7
2016-05-30T11:51:09.592Z,21.76
2016-05-30T11:52:09.571Z,21.67
2016-05-30T11:53:09.378Z,21.67
2016-05-30T11:54:09.466Z,21.79
2016-05-30T11:55:09.441Z,21.88
2016-05-30T11:56:09.243Z,21.79
2016-05-30T11:57:09.358Z,21.88
2016-05-30T11:58:09.301Z,21.98
2016-05-30T11:59:09.275Z,22.11
2016-05-30T12:00:09.233Z,22.1
2016-05-30T12:01:09.205Z,22.07
2016-05-30T12:02:09.147Z,22.18
2016-05-30T12:03:09.120Z,22.26
2016-05-30T12:04:08.919Z,22.28
2016-05-30T12:05:09.017Z,22.18
2016-05-30T12:06:08.989Z,22.25
2016-05-30T12:07:09.445Z,22.33
2016-05-30T12:08:08.886Z,22.39
2016-05-30T12:09:08.842Z,22.41
2016-05-30T12:10:08.485Z,22.44
2016-05-30T12:11:08.770Z,22.63
2016-05-30T12:12:08.709Z,22.68
2016-05-30T12:13:08.681Z,22.68
2016-05-30T12:14:08.652Z,22.65
2016-05-30T12:15:08.592Z,22.72
2016-05-30T12:16:08.533Z,22.69
2016-05-30T12:17:08.504Z,22.7
2016-05-30T12:18:08.304Z,22.81
2016-05-30T12:19:08.259Z,22.98
2016-05-30T12:20:08.387Z,22.85
2016-05-30T12:21:08.172Z,22.88
2016-05-30T12:22:08.845Z,22.88
2016-05-30T12:23:08.083Z,22.76
2016-05-30T12:24:08.039Z,22.7
2016-05-30T12:25:08.150Z,22.87
2016-05-30T12:26:08.122Z,22.83
2016-05-30T12:27:08.063Z,22.85
2016-05-30T12:28:08.031Z,22.99
2016-05-30T12:29:08.002Z,22.98
2016-05-30T12:30:07.927Z,22.98
2016-05-30T12:31:07.883Z,22.85
2016-05-30T12:32:07.699Z,22.93
2016-05-30T12:33:07.872Z,22.96
2016-05-30T12:34:07.766Z,23.02
2016-05-30T12:35:07.706Z,23
2016-05-30T12:36:07.677Z,22.99
2016-05-30T12:37:07.477Z,22.96
2016-05-30T12:38:07.621Z,22.99
2016-05-30T12:39:07.560Z,22.96
2016-05-30T12:40:07.516Z,23.05
2016-05-30T12:41:07.441Z,22.96
2016-05-30T12:42:07.256Z,23.03
2016-05-30T12:43:07.368Z,23.02
2016-05-30T12:44:07.340Z,22.99
2016-05-30T12:45:07.124Z,22.94
2016-05-30T12:46:07.267Z,22.85
2016-05-30T12:47:07.192Z,22.96
2016-05-30T12:48:07.162Z,22.78
2016-05-30T12:49:07.120Z,22.98
2016-05-30T12:50:07.075Z,23.02
2016-05-30T12:51:07.031Z,22.94
2016-05-30T12:52:06.908Z,23.02
2016-05-30T12:53:06.942Z,23.02
2016-05-30T12:54:06.914Z,22.98